createdAt,value
2018-12-16T00:01:54.276Z,18.70
2018-12-16T00:04:21.982Z,18.10
2018-12-16T00:06:49.544Z,18.23
2018-12-16T00:09:17.063Z,18.27
2018-12-16T00:11:45.472Z,18.47
2018-12-16T00:14:12.952Z,18.87
2018-12-16T00:16:41.197Z,19.90
2018-12-16T00:19:08.694Z,18.60
2018-12-16T00:21:36.635Z,19.13
2018-12-16T00:24:04.292Z,17.83
2018-12-16T00:26:43.772Z,18.57
2018-12-16T00:29:12.317Z,19.17
2018-12-16T00:31:42.634Z,19.17
2018-12-16T00:34:10.155Z,17.83
2018-12-16T00:36:38.628Z,19.20
2018-12-16T00:39:07.038Z,19.03
2018-12-16T00:41:34.533Z,18.57
2018-12-16T00:44:02.980Z,18.80
2018-12-16T00:46:30.556Z,18.40
2018-12-16T00:48:58.065Z,19.30
2018-12-16T00:51:25.625Z,18.53
2018-12-16T00:53:53.135Z,18.60
2018-12-16T00:56:21.538Z,18.57
2018-12-16T00:58:49.069Z,17.47
2018-12-16T01:01:16.755Z,17.93
2018-12-16T01:03:44.740Z,17.50
2018-12-16T01:06:12.235Z,19.33
2018-12-16T01:08:40.276Z,16.97
2018-12-16T01:11:07.892Z,17.57
2018-12-16T01:13:38.277Z,17.90
2018-12-16T01:16:05.818Z,18.47
2018-12-16T01:18:33.384Z,19.27
2018-12-16T01:21:01.737Z,19.40
2018-12-16T01:23:29.225Z,18.27
2018-12-16T01:25:57.125Z,17.87
2018-12-16T01:28:24.679Z,18.40
2018-12-16T01:30:52.235Z,17.53
2018-12-16T01:33:19.767Z,18.13
2018-12-16T01:35:47.372Z,17.80
2018-12-16T01:38:14.865Z,18.20
2018-12-16T01:40:43.178Z,18.87
2018-12-16T01:43:11.181Z,17.63
2018-12-16T01:45:38.805Z,18.50
2018-12-16T01:48:06.354Z,17.30
2018-12-16T01:50:34.096Z,18.53
2018-12-16T01:53:02.684Z,19.23
2018-12-16T01:55:30.276Z,19.17
2018-12-16T01:57:59.424Z,17.90
2018-12-16T02:00:28.643Z,18.40
2018-12-16T02:02:56.253Z,19.23
2018-12-16T02:05:23.814Z,17.83
2018-12-16T02:07:51.287Z,18.67
2018-12-16T02:10:18.850Z,18.40
2018-12-16T02:12:46.424Z,17.77
2018-12-16T02:15:14.657Z,18.13
2018-12-16T02:17:43.291Z,19.03
2018-12-16T02:20:11.632Z,18.73
2018-12-16T02:22:39.118Z,18.63
2018-12-16T02:25:07.853Z,17.30
2018-12-16T02:27:35.507Z,17.87
2018-12-16T02:30:03.302Z,17.83
2018-12-16T02:32:31.058Z,18.27
2018-12-16T02:34:58.567Z,18.03
2018-12-16T02:37:26.254Z,18.70
2018-12-16T02:39:55.692Z,18.30
2018-12-16T02:42:23.217Z,18.13
2018-12-16T02:44:50.960Z,19.03
2018-12-16T02:47:19.271Z,17.63
2018-12-16T02:49:46.760Z,16.73
2018-12-16T02:52:15.767Z,18.50
2018-12-16T02:54:44.061Z,19.73
2018-12-16T02:57:11.641Z,18.90
2018-12-16T02:59:40.523Z,18.77
2018-12-16T03:02:09.064Z,18.27
2018-12-16T03:04:37.625Z,19.37
2018-12-16T03:07:05.130Z,19.37
2018-12-16T03:09:32.727Z,18.07
2018-12-16T03:12:00.359Z,17.80
2018-12-16T03:14:29.235Z,18.43
2018-12-16T03:16:58.672Z,19.03
2018-12-16T03:19:26.149Z,20.03
2018-12-16T03:21:55.702Z,19.80
2018-12-16T03:24:23.210Z,19.07
2018-12-16T03:26:50.813Z,19.17
2018-12-16T03:29:18.386Z,17.43
2018-12-16T03:31:46.076Z,18.80
2018-12-16T03:34:13.625Z,19.37
2018-12-16T03:36:41.211Z,20.10
2018-12-16T03:39:08.778Z,19.00
2018-12-16T03:41:37.103Z,19.27
2018-12-16T03:44:05.041Z,19.73
2018-12-16T03:46:32.517Z,20.13
2018-12-16T03:49:00.056Z,19.27
2018-12-16T03:51:28.538Z,18.60
2018-12-16T03:53:56.095Z,20.10
2018-12-16T03:56:23.575Z,20.57
2018-12-16T03:59:03.476Z,18.73
2018-12-16T04:01:31.023Z,19.17
2018-12-16T04:03:59.509Z,19.67
2018-12-16T04:06:27.052Z,20.40
2018-12-16T04:08:54.679Z,20.47
2018-12-16T04:11:22.367Z,21.03
2018-12-16T04:13:49.913Z,19.83
2018-12-16T04:16:17.408Z,20.47
2018-12-16T04:18:45.938Z,19.93
2018-12-16T04:21:13.486Z,19.70
2018-12-16T04:23:40.999Z,19.27
2018-12-16T04:26:08.616Z,19.00
2018-12-16T04:28:37.525Z,19.27
2018-12-16T04:31:05.978Z,20.20
2018-12-16T04:33:33.491Z,19.60
2018-12-16T04:36:01.126Z,19.93
2018-12-16T04:38:28.622Z,20.00
2018-12-16T04:40:57.771Z,18.33
2018-12-16T04:43:25.288Z,21.47
2018-12-16T04:45:52.785Z,20.30
2018-12-16T04:48:20.322Z,19.17
2018-12-16T04:50:47.922Z,19.97
2018-12-16T04:53:15.475Z,20.70
2018-12-16T04:55:43.348Z,21.27
2018-12-16T04:58:10.885Z,19.00
2018-12-16T05:00:38.517Z,21.00
2018-12-16T05:03:06.067Z,20.83
2018-12-16T05:05:33.569Z,20.53
2018-12-16T05:08:01.963Z,20.90
2018-12-16T05:10:31.053Z,21.07
2018-12-16T05:12:58.635Z,20.17
2018-12-16T05:15:26.269Z,20.27
2018-12-16T05:17:53.879Z,19.97
2018-12-16T05:20:21.393Z,20.23
2018-12-16T05:22:48.950Z,19.97
2018-12-16T05:25:16.558Z,21.67
2018-12-16T05:27:44.038Z,19.97
2018-12-16T05:30:11.648Z,20.30
2018-12-16T05:32:39.292Z,20.27
2018-12-16T05:35:07.245Z,20.50
2018-12-16T05:37:34.786Z,20.23
2018-12-16T05:40:04.034Z,20.93
2018-12-16T05:42:32.506Z,20.07
2018-12-16T05:44:59.997Z,20.80
2018-12-16T05:47:29.221Z,20.93
2018-12-16T05:49:57.644Z,19.00
2018-12-16T05:52:25.249Z,19.17
2018-12-16T05:54:52.793Z,19.57
2018-12-16T05:57:20.439Z,20.43
2018-12-16T05:59:47.960Z,19.87
2018-12-16T06:02:16.128Z,19.87
2018-12-16T06:04:43.641Z,21.42
2018-12-16T06:07:11.197Z,20.63
2018-12-16T06:09:38.762Z,20.13
2018-12-16T06:12:06.730Z,18.90
2018-12-16T06:14:34.249Z,19.93
2018-12-16T06:17:02.718Z,19.57
2018-12-16T06:19:30.322Z,20.20
2018-12-16T06:21:57.888Z,19.43
2018-12-16T06:24:25.442Z,19.93
2018-12-16T06:26:53.823Z,18.97
2018-12-16T06:29:21.391Z,19.20
2018-12-16T06:31:49.016Z,20.53
2018-12-16T06:34:17.564Z,19.37
2018-12-16T06:36:45.246Z,19.27
2018-12-16T06:39:13.393Z,18.03
2018-12-16T06:41:42.374Z,18.93
2018-12-16T06:44:10.728Z,19.63
2018-12-16T06:46:39.989Z,18.67
2018-12-16T06:49:08.935Z,19.23
2018-12-16T06:51:36.471Z,18.37
2018-12-16T06:54:05.166Z,18.43
2018-12-16T06:56:32.973Z,20.10
2018-12-16T06:59:02.280Z,18.87
2018-12-16T07:01:29.758Z,19.87
2018-12-16T07:03:57.267Z,19.30
2018-12-16T07:06:24.913Z,18.50
2018-12-16T07:08:52.880Z,18.60
2018-12-16T07:11:21.758Z,19.27
2018-12-16T07:13:51.940Z,19.00
2018-12-16T07:16:19.965Z,18.63
2018-12-16T07:18:47.881Z,18.40
2018-12-16T07:21:15.535Z,19.27
2018-12-16T07:23:43.181Z,17.83
2018-12-16T07:26:12.006Z,17.57
2018-12-16T07:28:39.699Z,18.17
2018-12-16T07:31:09.014Z,17.83
2018-12-16T07:33:37.261Z,17.70
2018-12-16T07:36:05.969Z,17.70
2018-12-16T07:38:33.464Z,17.77
2018-12-16T07:41:01.065Z,18.07
2018-12-16T07:43:28.792Z,19.27
2018-12-16T07:45:57.243Z,18.17
2018-12-16T07:48:25.283Z,18.00
2018-12-16T07:50:54.717Z,17.63
2018-12-16T07:53:23.986Z,18.23
2018-12-16T07:55:51.627Z,18.13
2018-12-16T07:58:21.599Z,17.37
2018-12-16T08:00:52.532Z,18.80
2018-12-16T08:03:22.251Z,18.67
2018-12-16T08:05:49.835Z,18.13
2018-12-16T08:08:17.618Z,17.00
2018-12-16T08:10:46.002Z,16.43
2018-12-16T08:13:14.038Z,19.50
2018-12-16T08:15:41.933Z,18.83
2018-12-16T08:18:10.176Z,17.40
2018-12-16T08:20:38.409Z,17.87
2018-12-16T08:23:07.578Z,18.90
2018-12-16T08:25:35.212Z,18.43
2018-12-16T08:28:03.935Z,18.20
2018-12-16T08:30:32.341Z,18.50
2018-12-16T08:32:59.888Z,18.87
2018-12-16T08:35:27.955Z,19.17
2018-12-16T08:37:55.424Z,18.53
2018-12-16T08:40:23.047Z,18.40
2018-12-16T08:42:50.602Z,18.97
2018-12-16T08:45:18.151Z,18.93
2018-12-16T08:47:46.061Z,19.23
2018-12-16T08:50:13.739Z,18.43
2018-12-16T08:52:41.800Z,16.87
2018-12-16T08:55:09.330Z,18.53
2018-12-16T08:57:38.326Z,18.37
2018-12-16T09:00:05.949Z,18.07
2018-12-16T09:02:34.500Z,17.30
2018-12-16T09:05:03.572Z,17.47
2018-12-16T09:10:12.852Z,18.87
2018-12-16T09:12:41.176Z,17.50
2018-12-16T09:15:10.679Z,17.40
2018-12-16T09:17:38.176Z,17.83
2018-12-16T09:20:07.133Z,16.93
2018-12-16T09:22:34.637Z,17.60
2018-12-16T09:25:03.588Z,19.10
2018-12-16T09:27:31.076Z,17.17
2018-12-16T09:30:00.355Z,17.23
2018-12-16T09:32:28.483Z,16.23
2018-12-16T09:34:56.886Z,16.60
2018-12-16T09:37:24.379Z,17.20
2018-12-16T09:39:51.958Z,17.13
2018-12-16T09:42:19.402Z,17.13
2018-12-16T09:44:47.239Z,15.80
2018-12-16T09:47:15.705Z,16.60
2018-12-16T09:49:43.245Z,16.03
2018-12-16T09:52:10.798Z,16.63
2018-12-16T09:54:44.253Z,15.43
2018-12-16T09:57:10.235Z,16.73
2018-12-16T09:59:37.970Z,15.73
2018-12-16T10:02:06.267Z,16.57
2018-12-16T10:04:34.508Z,16.67
2018-12-16T10:07:02.052Z,16.47
2018-12-16T10:09:28.894Z,16.63
2018-12-16T10:11:56.752Z,16.27
2018-12-16T10:14:24.530Z,15.77
2018-12-16T10:16:52.212Z,16.10
2018-12-16T10:19:19.776Z,15.23
2018-12-16T10:21:47.334Z,15.90
2018-12-16T10:24:15.003Z,16.60
2018-12-16T10:26:42.831Z,17.30
2018-12-16T10:29:11.637Z,15.97
2018-12-16T10:43:24.074Z,15.93
2018-12-16T10:45:53.092Z,15.80
2018-12-16T10:48:20.646Z,15.97
2018-12-16T10:59:56.263Z,16.23
2018-12-16T11:02:23.707Z,15.90
2018-12-16T11:04:51.246Z,16.77
2018-12-16T11:07:18.697Z,15.90
2018-12-16T11:09:46.186Z,15.63
2018-12-16T11:12:13.633Z,16.30
2018-12-16T11:14:41.272Z,15.43
2018-12-16T11:17:08.722Z,17.20
2018-12-16T11:19:36.199Z,15.57
2018-12-16T11:22:03.727Z,15.30
2018-12-16T11:24:31.388Z,14.33
2018-12-16T11:26:58.959Z,14.93
2018-12-16T11:29:26.628Z,15.63
2018-12-16T11:31:54.620Z,15.03
2018-12-16T11:34:22.089Z,14.10
2018-12-16T11:36:49.582Z,14.83
2018-12-16T11:39:17.062Z,14.00
2018-12-16T11:41:44.526Z,16.13
2018-12-16T11:44:12.006Z,14.33
2018-12-16T11:46:39.548Z,14.57
2018-12-16T11:49:07.096Z,15.13
2018-12-16T11:51:34.797Z,14.33
2018-12-16T11:54:02.457Z,15.27
2018-12-16T11:56:30.295Z,15.50
2018-12-16T11:58:58.054Z,14.47
2018-12-16T12:01:25.617Z,15.27
2018-12-16T12:03:53.518Z,13.77
2018-12-16T12:06:21.079Z,15.37
2018-12-16T12:08:48.559Z,14.20
2018-12-16T12:11:16.287Z,15.93
2018-12-16T12:13:43.859Z,15.17
2018-12-16T12:16:11.412Z,15.53
2018-12-16T12:18:38.865Z,14.93
2018-12-16T12:21:06.460Z,15.57
2018-12-16T12:23:33.957Z,15.33
2018-12-16T12:26:01.512Z,15.30
2018-12-16T12:28:29.230Z,14.73
2018-12-16T12:30:57.050Z,14.77
2018-12-16T12:33:25.955Z,15.30
2018-12-16T12:35:54.181Z,15.47
2018-12-16T12:38:21.803Z,16.53
2018-12-16T12:40:52.510Z,16.40
2018-12-16T12:43:20.067Z,14.83
2018-12-16T12:45:47.741Z,16.97
2018-12-16T12:48:15.308Z,15.90
2018-12-16T12:50:42.958Z,15.50
2018-12-16T12:53:10.569Z,15.13
2018-12-16T12:55:38.171Z,15.47
2018-12-16T12:58:05.684Z,14.30
2018-12-16T13:00:33.193Z,16.10
2018-12-16T13:03:00.658Z,15.57
2018-12-16T13:05:28.493Z,15.57
2018-12-16T13:07:57.029Z,15.53
2018-12-16T13:10:24.655Z,15.47
2018-12-16T13:12:52.221Z,15.83
2018-12-16T13:15:19.734Z,15.60
2018-12-16T13:17:48.278Z,16.50
2018-12-16T13:20:15.748Z,14.67
2018-12-16T13:22:43.211Z,15.53
2018-12-16T13:25:22.636Z,15.90
2018-12-16T13:27:51.154Z,15.70
2018-12-16T13:30:18.690Z,15.73
2018-12-16T13:32:46.199Z,15.60
2018-12-16T13:35:13.675Z,15.60
2018-12-16T13:37:41.150Z,15.60
2018-12-16T13:40:08.817Z,14.40
2018-12-16T13:42:36.361Z,15.53
2018-12-16T13:45:06.383Z,15.17
2018-12-16T13:47:34.119Z,15.60
2018-12-16T13:50:01.813Z,14.73
2018-12-16T13:52:29.583Z,15.30
2018-12-16T13:54:57.233Z,14.90
2018-12-16T13:57:24.829Z,15.63
2018-12-16T13:59:52.345Z,13.90
2018-12-16T14:02:19.836Z,15.77
2018-12-16T14:04:47.312Z,15.27
2018-12-16T14:07:14.912Z,14.90
2018-12-16T14:09:42.707Z,14.67
2018-12-16T14:12:10.198Z,15.90
2018-12-16T14:14:38.318Z,15.13
2018-12-16T14:17:05.963Z,14.67
2018-12-16T14:19:33.579Z,15.60
2018-12-16T14:22:01.304Z,14.80
2018-12-16T14:24:28.792Z,14.87
2018-12-16T14:26:56.317Z,15.10
2018-12-16T14:29:24.346Z,16.00
2018-12-16T14:31:51.868Z,16.10
2018-12-16T14:34:19.334Z,15.60
2018-12-16T14:36:46.842Z,15.43
2018-12-16T14:39:14.424Z,15.07
2018-12-16T14:41:42.933Z,14.33
2018-12-16T14:44:10.722Z,14.47
2018-12-16T14:46:38.309Z,14.90
2018-12-16T14:49:06.219Z,15.73
2018-12-16T14:51:33.899Z,14.97
2018-12-16T14:54:01.603Z,14.93
2018-12-16T14:56:29.283Z,15.47
2018-12-16T14:58:56.787Z,15.57
2018-12-16T15:01:24.399Z,15.87
2018-12-16T15:03:51.876Z,14.70
2018-12-16T15:06:20.383Z,14.60
2018-12-16T15:08:52.670Z,14.40
2018-12-16T15:11:20.382Z,14.33
2018-12-16T15:13:48.504Z,15.13
2018-12-16T15:16:16.064Z,13.77
2018-12-16T15:18:43.862Z,16.17
2018-12-16T15:21:12.108Z,14.77
2018-12-16T15:23:40.345Z,13.57
2018-12-16T15:26:08.407Z,14.33
2018-12-16T15:28:35.981Z,14.63
2018-12-16T15:31:03.543Z,15.17
2018-12-16T15:33:31.093Z,15.07
2018-12-16T15:35:58.743Z,14.80
2018-12-16T15:38:27.189Z,15.73
2018-12-16T15:40:54.853Z,15.73
2018-12-16T15:43:23.829Z,15.20
2018-12-16T15:45:51.381Z,16.00
2018-12-16T15:48:19.097Z,15.83
2018-12-16T15:50:47.882Z,16.23
2018-12-16T15:53:15.541Z,17.37
2018-12-16T15:55:43.196Z,16.07
2018-12-16T15:58:10.690Z,17.13
2018-12-16T16:00:38.183Z,20.23
2018-12-16T16:03:05.823Z,17.00
2018-12-16T16:05:33.755Z,17.90
2018-12-16T16:08:01.475Z,18.20
2018-12-16T16:10:30.005Z,17.33
2018-12-16T16:12:57.827Z,16.83
2018-12-16T16:15:25.515Z,15.53
2018-12-16T16:17:53.401Z,17.03
2018-12-16T16:20:20.971Z,17.73
2018-12-16T16:22:48.573Z,15.87
2018-12-16T16:25:16.883Z,15.97
2018-12-16T16:27:45.159Z,17.63
2018-12-16T16:30:12.766Z,15.23
2018-12-16T16:32:40.284Z,18.43
2018-12-16T16:35:08.376Z,17.13
2018-12-16T16:37:36.123Z,18.27
2018-12-16T16:40:04.704Z,16.80
2018-12-16T16:42:32.349Z,17.20
2018-12-16T16:44:59.832Z,18.40
2018-12-16T16:47:27.341Z,18.03
2018-12-16T16:49:54.872Z,18.30
2018-12-16T16:52:22.364Z,16.23
2018-12-16T16:54:49.866Z,17.33
2018-12-16T16:57:17.623Z,17.03
2018-12-16T16:59:45.174Z,18.37
2018-12-16T17:02:12.920Z,17.57
2018-12-16T17:04:40.599Z,16.30
2018-12-16T17:07:08.158Z,18.57
2018-12-16T17:09:35.628Z,17.73
2018-12-16T17:12:03.183Z,17.23
2018-12-16T17:14:30.662Z,17.53
2018-12-16T17:16:58.271Z,17.87
2018-12-16T17:19:25.979Z,18.67
2018-12-16T17:21:53.765Z,18.27
2018-12-16T17:24:21.279Z,18.83
2018-12-16T17:26:48.863Z,18.10
2018-12-16T17:29:16.723Z,19.27
2018-12-16T17:31:44.335Z,19.40
2018-12-16T17:34:11.955Z,19.30
2018-12-16T17:36:40.350Z,18.60
2018-12-16T17:39:08.657Z,17.80
2018-12-16T17:41:36.147Z,18.87
2018-12-16T17:44:05.098Z,17.43
2018-12-16T17:46:32.600Z,18.63
2018-12-16T17:49:00.108Z,17.50
2018-12-16T17:51:28.567Z,17.47
2018-12-16T17:53:56.024Z,17.53
2018-12-16T17:56:23.821Z,17.67
2018-12-16T17:58:51.379Z,17.90
2018-12-16T18:01:19.102Z,17.27
2018-12-16T18:03:46.945Z,18.73
2018-12-16T18:06:14.906Z,18.87
2018-12-16T18:08:42.448Z,17.73
2018-12-16T18:11:09.924Z,19.17
2018-12-16T18:13:37.432Z,17.50
2018-12-16T18:16:05.556Z,18.20
2018-12-16T18:18:33.060Z,18.77
2018-12-16T18:21:00.826Z,18.40
2018-12-16T18:23:29.770Z,18.20
2018-12-16T18:25:58.259Z,17.87
2018-12-16T18:28:25.854Z,18.77
2018-12-16T18:30:53.473Z,18.70
2018-12-16T18:33:21.267Z,20.57
2018-12-16T18:35:48.737Z,20.87
2018-12-16T18:38:16.254Z,36.47
2018-12-16T18:40:43.734Z,24.00
2018-12-16T18:43:11.381Z,21.50
2018-12-16T18:45:39.610Z,31.90
2018-12-16T18:48:07.348Z,20.43
2018-12-16T18:50:34.921Z,19.80
2018-12-16T18:53:02.439Z,19.87
2018-12-16T18:55:29.926Z,19.47
2018-12-16T18:57:57.698Z,19.13
2018-12-16T19:00:25.348Z,20.13
2018-12-16T19:02:53.312Z,19.17
2018-12-16T19:05:20.794Z,19.60
2018-12-16T19:07:48.436Z,20.03
2018-12-16T19:10:16.150Z,19.70
2018-12-16T19:12:43.834Z,19.40
2018-12-16T19:15:12.148Z,19.53
2018-12-16T19:17:42.392Z,21.27
2018-12-16T19:20:10.746Z,20.37
2018-12-16T19:22:38.323Z,20.20
2018-12-16T19:25:06.574Z,19.80
2018-12-16T19:30:16.183Z,21.33
2018-12-16T19:32:43.681Z,20.17
2018-12-16T19:35:11.154Z,21.17
2018-12-16T19:37:38.643Z,20.67
2018-12-16T19:40:06.361Z,21.03
2018-12-16T19:42:34.023Z,20.97
2018-12-16T19:45:01.592Z,21.50
2018-12-16T19:47:29.246Z,20.87
2018-12-16T19:49:56.735Z,21.20
2018-12-16T19:52:24.264Z,20.77
2018-12-16T19:54:52.784Z,20.13
2018-12-16T19:57:20.520Z,20.57
2018-12-16T19:59:48.054Z,22.07
2018-12-16T20:02:15.540Z,20.67
2018-12-16T20:04:45.378Z,20.27
2018-12-16T20:07:12.891Z,21.77
2018-12-16T20:09:40.545Z,21.70
2018-12-16T20:12:08.179Z,22.40
2018-12-16T20:14:35.800Z,23.03
2018-12-16T20:17:03.605Z,23.43
2018-12-16T20:19:31.216Z,21.60
2018-12-16T20:21:59.121Z,22.40
2018-12-16T20:24:26.662Z,21.70
2018-12-16T20:26:54.362Z,21.10
2018-12-16T20:29:21.948Z,22.33
2018-12-16T20:31:49.449Z,22.27
2018-12-16T20:34:16.962Z,22.83
2018-12-16T20:36:44.475Z,22.77
2018-12-16T20:39:12.810Z,22.93
2018-12-16T20:41:40.412Z,22.40
2018-12-16T20:44:07.982Z,22.47
2018-12-16T20:46:35.579Z,22.60
2018-12-16T20:49:03.372Z,23.27
2018-12-16T20:51:31.058Z,23.50
2018-12-16T20:53:58.723Z,24.13
2018-12-16T20:56:26.346Z,22.23
2018-12-16T20:58:53.939Z,22.80
2018-12-16T21:01:22.298Z,23.43
2018-12-16T21:03:49.930Z,24.03
2018-12-16T21:06:17.606Z,23.90
2018-12-16T21:08:45.085Z,23.13
2018-12-16T21:11:19.067Z,23.57
2018-12-16T21:16:56.946Z,23.70
2018-12-16T21:19:26.193Z,23.73
2018-12-16T21:21:56.432Z,24.07
2018-12-16T21:24:25.355Z,24.47
2018-12-16T21:26:53.227Z,24.50
2018-12-16T21:29:20.742Z,24.93
2018-12-16T21:31:48.497Z,23.87
2018-12-16T21:34:16.107Z,24.13
2018-12-16T21:36:43.746Z,22.57
2018-12-16T21:39:11.280Z,24.87
2018-12-16T21:41:38.876Z,23.60
2018-12-16T21:44:06.807Z,22.97
2018-12-16T21:46:34.579Z,24.00
2018-12-16T21:49:02.266Z,23.27
2018-12-16T21:51:29.888Z,25.13
2018-12-16T21:53:57.397Z,23.80
2018-12-16T21:56:25.014Z,23.80
2018-12-16T21:58:56.027Z,25.80
2018-12-16T22:01:23.540Z,25.67
2018-12-16T22:03:50.999Z,25.67
2018-12-16T22:06:18.444Z,26.00
2018-12-16T22:08:46.047Z,27.00
2018-12-16T22:11:13.604Z,27.00
2018-12-16T22:13:41.135Z,26.30
2018-12-16T22:16:08.855Z,25.93
2018-12-16T22:18:48.127Z,27.27
2018-12-16T22:21:15.774Z,25.47
2018-12-16T22:23:43.246Z,26.00
2018-12-16T22:26:10.772Z,25.40
2018-12-16T22:28:38.312Z,27.13
2018-12-16T22:31:05.845Z,25.77
2018-12-16T22:33:33.707Z,26.37
2018-12-16T22:36:01.725Z,24.83
2018-12-16T22:38:29.358Z,26.67
2018-12-16T22:40:58.419Z,26.67
2018-12-16T22:43:26.045Z,24.50
2018-12-16T22:45:54.077Z,26.67
2018-12-16T22:48:21.601Z,25.63
2018-12-16T22:50:49.091Z,25.87
2018-12-16T22:53:16.625Z,26.30
2018-12-16T22:55:44.355Z,25.67
2018-12-16T22:58:11.929Z,25.70
2018-12-16T23:00:45.894Z,25.43
2018-12-16T23:03:13.496Z,25.10
2018-12-16T23:05:41.143Z,26.07
2018-12-16T23:08:08.942Z,27.43
2018-12-16T23:10:36.825Z,25.90
2018-12-16T23:13:04.323Z,26.80
2018-12-16T23:15:31.857Z,26.80
2018-12-16T23:17:59.421Z,26.10
2018-12-16T23:20:33.078Z,26.00
2018-12-16T23:23:00.588Z,26.67
2018-12-16T23:25:28.102Z,25.33
2018-12-16T23:27:55.564Z,29.10
2018-12-16T23:30:23.139Z,27.20
2018-12-16T23:32:50.605Z,27.90
2018-12-16T23:35:18.100Z,27.50
2018-12-16T23:37:45.595Z,25.93
2018-12-16T23:40:13.135Z,26.03
2018-12-16T23:42:40.615Z,26.73
2018-12-16T23:45:08.245Z,27.03
2018-12-16T23:47:35.906Z,27.67
2018-12-16T23:50:05.116Z,26.23
2018-12-16T23:52:32.778Z,27.93
2018-12-16T23:55:00.234Z,25.77
2018-12-16T23:57:27.734Z,27.17
2018-12-16T23:59:55.213Z,27.37
